sensor_id;sensor_type;location;lat;lon;timestamp;P1;durP1;ratioP1;P2;durP2;ratioP2
15616;SDS011;7908;51.688;7.130;2022-08-21T00:01:29;7.10;;;3.17;;
15616;SDS011;7908;51.688;7.130;2022-08-21T00:04:07;7.13;;;3.63;;
15616;SDS011;7908;51.688;7.130;2022-08-21T00:06:49;6.03;;;3.07;;
15616;SDS011;7908;51.688;7.130;2022-08-21T00:09:45;8.13;;;3.57;;
15616;SDS011;7908;51.688;7.130;2022-08-21T00:12:22;5.53;;;3.30;;
15616;SDS011;7908;51.688;7.130;2022-08-21T00:14:57;7.63;;;3.70;;
15616;SDS011;7908;51.688;7.130;2022-08-21T00:17:27;5.87;;;3.17;;
15616;SDS011;7908;51.688;7.130;2022-08-21T00:20:00;6.47;;;3.47;;
15616;SDS011;7908;51.688;7.130;2022-08-21T00:22:33;6.27;;;3.23;;
15616;SDS011;7908;51.688;7.130;2022-08-21T00:25:04;9.43;;;3.60;;
15616;SDS011;7908;51.688;7.130;2022-08-21T00:27:40;8.03;;;3.80;;
15616;SDS011;7908;51.688;7.130;2022-08-21T00:30:14;4.83;;;3.00;;
15616;SDS011;7908;51.688;7.130;2022-08-21T00:32:49;7.67;;;3.60;;
15616;SDS011;7908;51.688;7.130;2022-08-21T00:35:27;7.57;;;3.80;;
15616;SDS011;7908;51.688;7.130;2022-08-21T00:37:58;5.90;;;3.57;;
15616;SDS011;7908;51.688;7.130;2022-08-21T00:40:35;6.17;;;3.03;;
15616;SDS011;7908;51.688;7.130;2022-08-21T00:43:12;4.70;;;3.10;;
15616;SDS011;7908;51.688;7.130;2022-08-21T00:45:47;5.97;;;3.00;;
15616;SDS011;7908;51.688;7.130;2022-08-21T00:48:22;6.93;;;3.60;;
15616;SDS011;7908;51.688;7.130;2022-08-21T00:50:59;7.43;;;3.37;;
15616;SDS011;7908;51.688;7.130;2022-08-21T00:53:36;8.13;;;3.40;;
15616;SDS011;7908;51.688;7.130;2022-08-21T00:56:08;8.07;;;3.13;;
15616;SDS011;7908;51.688;7.130;2022-08-21T00:58:53;6.87;;;3.83;;
15616;SDS011;7908;51.688;7.130;2022-08-21T01:01:25;7.77;;;3.70;;
15616;SDS011;7908;51.688;7.130;2022-08-21T01:04:00;6.03;;;3.60;;
15616;SDS011;7908;51.688;7.130;2022-08-21T01:06:36;7.43;;;3.17;;
15616;SDS011;7908;51.688;7.130;2022-08-21T01:09:11;5.77;;;3.40;;
15616;SDS011;7908;51.688;7.130;2022-08-21T01:11:48;5.07;;;3.10;;
15616;SDS011;7908;51.688;7.130;2022-08-21T01:14:20;4.47;;;3.40;;
15616;SDS011;7908;51.688;7.130;2022-08-21T01:17:04;7.33;;;3.53;;
15616;SDS011;7908;51.688;7.130;2022-08-21T01:19:37;7.17;;;3.60;;
15616;SDS011;7908;51.688;7.130;2022-08-21T01:22:10;6.23;;;3.40;;
15616;SDS011;7908;51.688;7.130;2022-08-21T01:24:45;9.27;;;3.77;;
15616;SDS011;7908;51.688;7.130;2022-08-21T01:27:16;8.20;;;3.83;;
15616;SDS011;7908;51.688;7.130;2022-08-21T01:29:48;7.37;;;3.97;;
15616;SDS011;7908;51.688;7.130;2022-08-21T01:32:23;7.53;;;3.80;;
15616;SDS011;7908;51.688;7.130;2022-08-21T01:34:56;7.47;;;4.00;;
15616;SDS011;7908;51.688;7.130;2022-08-21T01:37:27;8.50;;;3.90;;
15616;SDS011;7908;51.688;7.130;2022-08-21T01:40:08;5.27;;;3.53;;
15616;SDS011;7908;51.688;7.130;2022-08-21T01:42:40;6.90;;;3.43;;
15616;SDS011;7908;51.688;7.130;2022-08-21T01:45:16;6.30;;;3.70;;
15616;SDS011;7908;51.688;7.130;2022-08-21T01:47:53;6.63;;;4.07;;
15616;SDS011;7908;51.688;7.130;2022-08-21T01:50:23;6.53;;;3.80;;
15616;SDS011;7908;51.688;7.130;2022-08-21T01:53:03;5.07;;;3.90;;
15616;SDS011;7908;51.688;7.130;2022-08-21T01:55:32;7.00;;;4.00;;
15616;SDS011;7908;51.688;7.130;2022-08-21T01:58:02;6.63;;;3.97;;
15616;SDS011;7908;51.688;7.130;2022-08-21T02:00:36;6.40;;;4.10;;
15616;SDS011;7908;51.688;7.130;2022-08-21T02:03:09;6.07;;;3.97;;
15616;SDS011;7908;51.688;7.130;2022-08-21T02:05:51;7.37;;;4.37;;
15616;SDS011;7908;51.688;7.130;2022-08-21T02:08:22;6.87;;;4.57;;
15616;SDS011;7908;51.688;7.130;2022-08-21T02:10:58;6.93;;;3.73;;
15616;SDS011;7908;51.688;7.130;2022-08-21T02:13:30;5.50;;;3.90;;
15616;SDS011;7908;51.688;7.130;2022-08-21T02:16:05;8.23;;;4.17;;
15616;SDS011;7908;51.688;7.130;2022-08-21T02:18:39;8.20;;;4.57;;
15616;SDS011;7908;51.688;7.130;2022-08-21T02:21:08;8.57;;;5.07;;
15616;SDS011;7908;51.688;7.130;2022-08-21T02:23:42;7.77;;;4.57;;
15616;SDS011;7908;51.688;7.130;2022-08-21T02:26:12;6.60;;;4.23;;
15616;SDS011;7908;51.688;7.130;2022-08-21T02:28:42;7.10;;;4.30;;
15616;SDS011;7908;51.688;7.130;2022-08-21T02:31:18;7.63;;;4.03;;
15616;SDS011;7908;51.688;7.130;2022-08-21T02:33:48;7.50;;;4.97;;
15616;SDS011;7908;51.688;7.130;2022-08-21T02:36:23;7.03;;;4.30;;
15616;SDS011;7908;51.688;7.130;2022-08-21T02:38:56;6.33;;;4.00;;
15616;SDS011;7908;51.688;7.130;2022-08-21T02:41:25;6.43;;;4.27;;
15616;SDS011;7908;51.688;7.130;2022-08-21T02:43:58;6.73;;;4.57;;
15616;SDS011;7908;51.688;7.130;2022-08-21T02:46:31;7.57;;;4.17;;
15616;SDS011;7908;51.688;7.130;2022-08-21T02:49:01;6.27;;;4.40;;
15616;SDS011;7908;51.688;7.130;2022-08-21T02:51:32;8.07;;;4.30;;
15616;SDS011;7908;51.688;7.130;2022-08-21T02:54:06;6.23;;;4.00;;
15616;SDS011;7908;51.688;7.130;2022-08-21T02:56:35;8.03;;;4.50;;
15616;SDS011;7908;51.688;7.130;2022-08-21T02:59:05;8.03;;;4.50;;
15616;SDS011;7908;51.688;7.130;2022-08-21T03:01:37;9.10;;;4.37;;
15616;SDS011;7908;51.688;7.130;2022-08-21T03:04:10;5.73;;;4.07;;
15616;SDS011;7908;51.688;7.130;2022-08-21T03:06:41;7.60;;;4.03;;
15616;SDS011;7908;51.688;7.130;2022-08-21T03:09:12;6.07;;;4.00;;
15616;SDS011;7908;51.688;7.130;2022-08-21T03:11:41;6.67;;;4.03;;
15616;SDS011;7908;51.688;7.130;2022-08-21T03:14:11;8.27;;;4.30;;
15616;SDS011;7908;51.688;7.130;2022-08-21T03:16:59;7.73;;;3.90;;
15616;SDS011;7908;51.688;7.130;2022-08-21T03:19:28;5.87;;;3.97;;
15616;SDS011;7908;51.688;7.130;2022-08-21T03:22:00;6.87;;;3.80;;
15616;SDS011;7908;51.688;7.130;2022-08-21T03:24:35;6.57;;;3.87;;
15616;SDS011;7908;51.688;7.130;2022-08-21T03:27:09;7.33;;;4.27;;
15616;SDS011;7908;51.688;7.130;2022-08-21T03:29:39;6.67;;;4.43;;
15616;SDS011;7908;51.688;7.130;2022-08-21T03:32:09;7.17;;;4.10;;
15616;SDS011;7908;51.688;7.130;2022-08-21T03:34:39;6.20;;;3.90;;
15616;SDS011;7908;51.688;7.130;2022-08-21T03:37:11;5.57;;;4.60;;
15616;SDS011;7908;51.688;7.130;2022-08-21T03:39:47;6.03;;;4.37;;
15616;SDS011;7908;51.688;7.130;2022-08-21T03:42:18;7.60;;;4.57;;
15616;SDS011;7908;51.688;7.130;2022-08-21T03:44:50;7.30;;;4.30;;
15616;SDS011;7908;51.688;7.130;2022-08-21T03:47:20;5.17;;;4.07;;
15616;SDS011;7908;51.688;7.130;2022-08-21T03:49:52;6.60;;;4.27;;
15616;SDS011;7908;51.688;7.130;2022-08-21T03:52:23;5.40;;;4.00;;
15616;SDS011;7908;51.688;7.130;2022-08-21T03:54:56;5.73;;;4.23;;
15616;SDS011;7908;51.688;7.130;2022-08-21T03:57:25;4.90;;;4.10;;
15616;SDS011;7908;51.688;7.130;2022-08-21T03:59:54;7.50;;;4.37;;
15616;SDS011;7908;51.688;7.130;2022-08-21T04:02:24;6.93;;;4.67;;
15616;SDS011;7908;51.688;7.130;2022-08-21T04:04:58;5.60;;;4.70;;
15616;SDS011;7908;51.688;7.130;2022-08-21T04:07:31;6.67;;;5.07;;
15616;SDS011;7908;51.688;7.130;2022-08-21T04:10:07;7.67;;;5.10;;
15616;SDS011;7908;51.688;7.130;2022-08-21T04:12:38;8.37;;;4.73;;
15616;SDS011;7908;51.688;7.130;2022-08-21T04:15:10;6.90;;;4.93;;
15616;SDS011;7908;51.688;7.130;2022-08-21T04:17:43;5.57;;;4.87;;
15616;SDS011;7908;51.688;7.130;2022-08-21T04:20:15;7.13;;;4.97;;
15616;SDS011;7908;51.688;7.130;2022-08-21T04:22:46;8.93;;;5.00;;
15616;SDS011;7908;51.688;7.130;2022-08-21T04:25:18;6.57;;;4.30;;
15616;SDS011;7908;51.688;7.130;2022-08-21T04:27:48;7.80;;;4.87;;
15616;SDS011;7908;51.688;7.130;2022-08-21T04:30:20;7.93;;;4.67;;
15616;SDS011;7908;51.688;7.130;2022-08-21T04:32:55;6.07;;;4.47;;
15616;SDS011;7908;51.688;7.130;2022-08-21T04:35:26;9.33;;;4.80;;
15616;SDS011;7908;51.688;7.130;2022-08-21T04:38:00;7.47;;;4.40;;
15616;SDS011;7908;51.688;7.130;2022-08-21T04:40:33;7.53;;;4.73;;
15616;SDS011;7908;51.688;7.130;2022-08-21T04:43:09;6.57;;;4.83;;
15616;SDS011;7908;51.688;7.130;2022-08-21T04:45:43;7.67;;;4.67;;
15616;SDS011;7908;51.688;7.130;2022-08-21T04:48:18;8.23;;;4.67;;
15616;SDS011;7908;51.688;7.130;2022-08-21T04:50:51;6.77;;;4.97;;
15616;SDS011;7908;51.688;7.130;2022-08-21T04:53:27;6.07;;;4.93;;
15616;SDS011;7908;51.688;7.130;2022-08-21T04:56:08;6.93;;;5.40;;
15616;SDS011;7908;51.688;7.130;2022-08-21T04:58:41;7.37;;;5.20;;
15616;SDS011;7908;51.688;7.130;2022-08-21T05:01:15;7.67;;;5.10;;
15616;SDS011;7908;51.688;7.130;2022-08-21T05:03:53;6.93;;;4.83;;
15616;SDS011;7908;51.688;7.130;2022-08-21T05:06:27;7.57;;;4.57;;
15616;SDS011;7908;51.688;7.130;2022-08-21T05:09:04;5.33;;;4.10;;
15616;SDS011;7908;51.688;7.130;2022-08-21T05:11:37;6.20;;;4.30;;
15616;SDS011;7908;51.688;7.130;2022-08-21T05:14:11;4.67;;;3.83;;
15616;SDS011;7908;51.688;7.130;2022-08-21T05:16:41;5.67;;;4.10;;
15616;SDS011;7908;51.688;7.130;2022-08-21T05:19:13;5.43;;;3.77;;
15616;SDS011;7908;51.688;7.130;2022-08-21T05:21:47;5.17;;;4.30;;
15616;SDS011;7908;51.688;7.130;2022-08-21T05:24:22;7.27;;;4.07;;
15616;SDS011;7908;51.688;7.130;2022-08-21T05:26:54;8.43;;;4.30;;
15616;SDS011;7908;51.688;7.130;2022-08-21T05:29:24;5.57;;;4.13;;
15616;SDS011;7908;51.688;7.130;2022-08-21T05:31:58;5.80;;;4.03;;
15616;SDS011;7908;51.688;7.130;2022-08-21T05:34:27;5.27;;;3.40;;
15616;SDS011;7908;51.688;7.130;2022-08-21T05:37:00;6.97;;;4.13;;
15616;SDS011;7908;51.688;7.130;2022-08-21T05:39:33;5.53;;;3.57;;
15616;SDS011;7908;51.688;7.130;2022-08-21T05:42:26;5.27;;;3.80;;
15616;SDS011;7908;51.688;7.130;2022-08-21T05:44:56;5.80;;;4.10;;
15616;SDS011;7908;51.688;7.130;2022-08-21T05:47:29;3.90;;;3.50;;
15616;SDS011;7908;51.688;7.130;2022-08-21T05:49:58;5.23;;;3.97;;
15616;SDS011;7908;51.688;7.130;2022-08-21T05:52:31;5.23;;;3.50;;
15616;SDS011;7908;51.688;7.130;2022-08-21T05:55:05;6.17;;;3.80;;
15616;SDS011;7908;51.688;7.130;2022-08-21T05:57:50;5.10;;;4.23;;
15616;SDS011;7908;51.688;7.130;2022-08-21T06:00:20;5.40;;;3.70;;
15616;SDS011;7908;51.688;7.130;2022-08-21T06:02:50;5.73;;;3.80;;
15616;SDS011;7908;51.688;7.130;2022-08-21T06:05:25;4.27;;;3.40;;
15616;SDS011;7908;51.688;7.130;2022-08-21T06:08:06;5.20;;;3.80;;
15616;SDS011;7908;51.688;7.130;2022-08-21T06:10:36;5.13;;;3.77;;
15616;SDS011;7908;51.688;7.130;2022-08-21T06:13:08;5.83;;;3.63;;
15616;SDS011;7908;51.688;7.130;2022-08-21T06:15:40;5.30;;;3.80;;
15616;SDS011;7908;51.688;7.130;2022-08-21T06:18:19;7.03;;;3.80;;
15616;SDS011;7908;51.688;7.130;2022-08-21T06:20:58;6.43;;;4.00;;
15616;SDS011;7908;51.688;7.130;2022-08-21T06:23:28;4.87;;;4.00;;
15616;SDS011;7908;51.688;7.130;2022-08-21T06:26:01;7.70;;;5.23;;
15616;SDS011;7908;51.688;7.130;2022-08-21T06:28:49;7.70;;;4.57;;
15616;SDS011;7908;51.688;7.130;2022-08-21T06:31:19;6.50;;;4.43;;
15616;SDS011;7908;51.688;7.130;2022-08-21T06:33:54;7.13;;;4.20;;
15616;SDS011;7908;51.688;7.130;2022-08-21T06:36:26;8.77;;;4.60;;
15616;SDS011;7908;51.688;7.130;2022-08-21T06:39:01;9.67;;;4.70;;
15616;SDS011;7908;51.688;7.130;2022-08-21T06:41:50;8.50;;;5.10;;
15616;SDS011;7908;51.688;7.130;2022-08-21T06:44:25;9.93;;;6.80;;
15616;SDS011;7908;51.688;7.130;2022-08-21T06:46:55;12.93;;;8.13;;
15616;SDS011;7908;51.688;7.130;2022-08-21T06:49:26;13.83;;;7.83;;
15616;SDS011;7908;51.688;7.130;2022-08-21T06:51:55;10.73;;;7.37;;
15616;SDS011;7908;51.688;7.130;2022-08-21T06:54:33;12.57;;;8.30;;
15616;SDS011;7908;51.688;7.130;2022-08-21T06:57:03;13.93;;;7.00;;
15616;SDS011;7908;51.688;7.130;2022-08-21T06:59:39;13.63;;;6.90;;
15616;SDS011;7908;51.688;7.130;2022-08-21T07:02:10;12.23;;;6.90;;
15616;SDS011;7908;51.688;7.130;2022-08-21T07:04:42;13.87;;;7.03;;
15616;SDS011;7908;51.688;7.130;2022-08-21T07:07:15;13.77;;;6.77;;
15616;SDS011;7908;51.688;7.130;2022-08-21T07:09:59;9.30;;;6.20;;
15616;SDS011;7908;51.688;7.130;2022-08-21T07:12:31;11.93;;;6.23;;
15616;SDS011;7908;51.688;7.130;2022-08-21T07:15:17;11.93;;;6.53;;
15616;SDS011;7908;51.688;7.130;2022-08-21T07:17:53;11.90;;;5.97;;
15616;SDS011;7908;51.688;7.130;2022-08-21T07:20:30;15.30;;;7.17;;
15616;SDS011;7908;51.688;7.130;2022-08-21T07:23:11;10.27;;;5.60;;
15616;SDS011;7908;51.688;7.130;2022-08-21T07:25:53;10.35;;;5.85;;
15616;SDS011;7908;51.688;7.130;2022-08-21T07:28:33;9.48;;;5.57;;
15616;SDS011;7908;51.688;7.130;2022-08-21T07:31:04;10.63;;;5.27;;
15616;SDS011;7908;51.688;7.130;2022-08-21T07:33:46;9.82;;;5.43;;
15616;SDS011;7908;51.688;7.130;2022-08-21T07:36:19;11.38;;;4.50;;
15616;SDS011;7908;51.688;7.130;2022-08-21T07:38:57;9.75;;;4.68;;
15616;SDS011;7908;51.688;7.130;2022-08-21T07:41:33;9.02;;;4.32;;
15616;SDS011;7908;51.688;7.130;2022-08-21T07:44:10;9.18;;;4.15;;
15616;SDS011;7908;51.688;7.130;2022-08-21T07:47:15;7.35;;;4.07;;
15616;SDS011;7908;51.688;7.130;2022-08-21T07:50:11;9.32;;;3.45;;
15616;SDS011;7908;51.688;7.130;2022-08-21T07:52:44;8.07;;;3.20;;
15616;SDS011;7908;51.688;7.130;2022-08-21T07:55:17;6.45;;;3.60;;
15616;SDS011;7908;51.688;7.130;2022-08-21T07:57:51;6.93;;;3.63;;
15616;SDS011;7908;51.688;7.130;2022-08-21T08:00:24;9.18;;;4.13;;
15616;SDS011;7908;51.688;7.130;2022-08-21T08:03:14;9.63;;;4.85;;
15616;SDS011;7908;51.688;7.130;2022-08-21T08:05:54;8.27;;;4.30;;
15616;SDS011;7908;51.688;7.130;2022-08-21T08:08:36;12.68;;;4.55;;
15616;SDS011;7908;51.688;7.130;2022-08-21T08:11:17;8.70;;;3.97;;
15616;SDS011;7908;51.688;7.130;2022-08-21T08:13:54;10.05;;;4.07;;
15616;SDS011;7908;51.688;7.130;2022-08-21T08:16:31;12.45;;;4.70;;
15616;SDS011;7908;51.688;7.130;2022-08-21T08:19:10;14.10;;;4.72;;
15616;SDS011;7908;51.688;7.130;2022-08-21T08:21:57;16.27;;;4.93;;
15616;SDS011;7908;51.688;7.130;2022-08-21T08:24:32;12.07;;;5.03;;
15616;SDS011;7908;51.688;7.130;2022-08-21T08:27:09;9.48;;;4.57;;
15616;SDS011;7908;51.688;7.130;2022-08-21T08:29:47;9.75;;;4.38;;
15616;SDS011;7908;51.688;7.130;2022-08-21T08:32:25;14.57;;;5.20;;
15616;SDS011;7908;51.688;7.130;2022-08-21T08:34:57;11.95;;;4.72;;
15616;SDS011;7908;51.688;7.130;2022-08-21T08:37:29;7.65;;;4.07;;
15616;SDS011;7908;51.688;7.130;2022-08-21T08:40:19;12.60;;;5.28;;
15616;SDS011;7908;51.688;7.130;2022-08-21T08:43:12;14.00;;;4.93;;
15616;SDS011;7908;51.688;7.130;2022-08-21T08:45:53;13.18;;;4.28;;
15616;SDS011;7908;51.688;7.130;2022-08-21T08:48:36;16.70;;;4.10;;
15616;SDS011;7908;51.688;7.130;2022-08-21T08:51:25;8.30;;;3.45;;
15616;SDS011;7908;51.688;7.130;2022-08-21T08:54:04;9.18;;;3.38;;
15616;SDS011;7908;51.688;7.130;2022-08-21T08:56:38;10.27;;;3.28;;
15616;SDS011;7908;51.688;7.130;2022-08-21T08:59:13;7.40;;;3.17;;
15616;SDS011;7908;51.688;7.130;2022-08-21T09:02:00;9.13;;;3.22;;
15616;SDS011;7908;51.688;7.130;2022-08-21T09:04:49;10.23;;;2.85;;
15616;SDS011;7908;51.688;7.130;2022-08-21T09:07:31;10.40;;;2.92;;
15616;SDS011;7908;51.688;7.130;2022-08-21T09:10:11;9.23;;;2.67;;
15616;SDS011;7908;51.688;7.130;2022-08-21T09:12:56;7.72;;;2.60;;
15616;SDS011;7908;51.688;7.130;2022-08-21T09:15:44;7.63;;;2.90;;
15616;SDS011;7908;51.688;7.130;2022-08-21T09:18:36;7.70;;;2.30;;
15616;SDS011;7908;51.688;7.130;2022-08-21T09:21:28;5.57;;;2.00;;
15616;SDS011;7908;51.688;7.130;2022-08-21T09:24:25;7.28;;;2.47;;
15616;SDS011;7908;51.688;7.130;2022-08-21T09:27:04;7.38;;;2.05;;
15616;SDS011;7908;51.688;7.130;2022-08-21T09:29:43;7.35;;;2.40;;
15616;SDS011;7908;51.688;7.130;2022-08-21T09:32:21;5.93;;;2.35;;
15616;SDS011;7908;51.688;7.130;2022-08-21T09:35:11;10.90;;;3.08;;
15616;SDS011;7908;51.688;7.130;2022-08-21T09:37:48;5.80;;;1.83;;
15616;SDS011;7908;51.688;7.130;2022-08-21T09:40:36;7.35;;;2.00;;
15616;SDS011;7908;51.688;7.130;2022-08-21T09:43:15;7.95;;;2.78;;
15616;SDS011;7908;51.688;7.130;2022-08-21T09:46:03;6.70;;;1.85;;
15616;SDS011;7908;51.688;7.130;2022-08-21T09:48:44;6.03;;;2.20;;
15616;SDS011;7908;51.688;7.130;2022-08-21T09:51:49;4.93;;;1.73;;
15616;SDS011;7908;51.688;7.130;2022-08-21T09:54:31;4.55;;;1.60;;
15616;SDS011;7908;51.688;7.130;2022-08-21T09:57:12;4.93;;;1.80;;
15616;SDS011;7908;51.688;7.130;2022-08-21T10:00:29;6.30;;;1.90;;
15616;SDS011;7908;51.688;7.130;2022-08-21T10:03:10;5.50;;;1.90;;
15616;SDS011;7908;51.688;7.130;2022-08-21T10:05:53;7.38;;;2.17;;
15616;SDS011;7908;51.688;7.130;2022-08-21T10:08:51;5.30;;;1.98;;
15616;SDS011;7908;51.688;7.130;2022-08-21T10:11:49;6.05;;;1.77;;
15616;SDS011;7908;51.688;7.130;2022-08-21T10:14:44;6.65;;;2.10;;
15616;SDS011;7908;51.688;7.130;2022-08-21T10:17:27;4.50;;;1.83;;
15616;SDS011;7908;51.688;7.130;2022-08-21T10:20:13;4.40;;;1.45;;
15616;SDS011;7908;51.688;7.130;2022-08-21T10:22:55;4.57;;;1.42;;
15616;SDS011;7908;51.688;7.130;2022-08-21T10:25:49;4.63;;;1.88;;
15616;SDS011;7908;51.688;7.130;2022-08-21T10:28:42;3.53;;;1.55;;
15616;SDS011;7908;51.688;7.130;2022-08-21T10:31:26;9.13;;;1.75;;
15616;SDS011;7908;51.688;7.130;2022-08-21T10:34:16;4.10;;;1.88;;
15616;SDS011;7908;51.688;7.130;2022-08-21T10:37:01;4.25;;;1.77;;
15616;SDS011;7908;51.688;7.130;2022-08-21T10:39:43;3.47;;;1.60;;
15616;SDS011;7908;51.688;7.130;2022-08-21T10:42:39;4.10;;;1.38;;
15616;SDS011;7908;51.688;7.130;2022-08-21T10:45:38;4.78;;;1.88;;
15616;SDS011;7908;51.688;7.130;2022-08-21T10:48:24;4.75;;;1.63;;
15616;SDS011;7908;51.688;7.130;2022-08-21T10:50:59;5.97;;;1.40;;
15616;SDS011;7908;51.688;7.130;2022-08-21T10:53:41;5.88;;;2.35;;
15616;SDS011;7908;51.688;7.130;2022-08-21T10:56:26;3.85;;;1.50;;
15616;SDS011;7908;51.688;7.130;2022-08-21T10:59:02;5.40;;;1.70;;
15616;SDS011;7908;51.688;7.130;2022-08-21T11:01:54;3.35;;;1.30;;
15616;SDS011;7908;51.688;7.130;2022-08-21T11:04:31;4.10;;;1.48;;
15616;SDS011;7908;51.688;7.130;2022-08-21T11:07:21;5.53;;;1.60;;
15616;SDS011;7908;51.688;7.130;2022-08-21T11:10:08;5.13;;;1.58;;
15616;SDS011;7908;51.688;7.130;2022-08-21T11:12:52;5.22;;;1.42;;
15616;SDS011;7908;51.688;7.130;2022-08-21T11:15:36;3.10;;;1.50;;
15616;SDS011;7908;51.688;7.130;2022-08-21T11:18:15;7.70;;;1.67;;
15616;SDS011;7908;51.688;7.130;2022-08-21T11:20:55;4.75;;;1.27;;
15616;SDS011;7908;51.688;7.130;2022-08-21T11:23:46;5.30;;;1.42;;
15616;SDS011;7908;51.688;7.130;2022-08-21T11:26:28;2.83;;;1.00;;
15616;SDS011;7908;51.688;7.130;2022-08-21T11:29:09;5.18;;;1.70;;
15616;SDS011;7908;51.688;7.130;2022-08-21T11:31:51;4.80;;;1.52;;
15616;SDS011;7908;51.688;7.130;2022-08-21T11:34:34;4.03;;;1.08;;
15616;SDS011;7908;51.688;7.130;2022-08-21T11:37:24;5.75;;;1.38;;
15616;SDS011;7908;51.688;7.130;2022-08-21T11:40:16;4.00;;;1.50;;
15616;SDS011;7908;51.688;7.130;2022-08-21T11:43:16;3.83;;;1.20;;
15616;SDS011;7908;51.688;7.130;2022-08-21T11:45:59;4.32;;;1.45;;
15616;SDS011;7908;51.688;7.130;2022-08-21T11:48:48;2.67;;;1.10;;
15616;SDS011;7908;51.688;7.130;2022-08-21T11:51:30;2.80;;;1.10;;
15616;SDS011;7908;51.688;7.130;2022-08-21T11:54:21;4.53;;;1.20;;
15616;SDS011;7908;51.688;7.130;2022-08-21T11:56:59;2.92;;;1.23;;
15616;SDS011;7908;51.688;7.130;2022-08-21T11:59:44;1.80;;;1.20;;
15616;SDS011;7908;51.688;7.130;2022-08-21T12:02:21;2.40;;;1.10;;
15616;SDS011;7908;51.688;7.130;2022-08-21T12:05:01;3.40;;;1.27;;
15616;SDS011;7908;51.688;7.130;2022-08-21T12:07:48;1.52;;;0.98;;
15616;SDS011;7908;51.688;7.130;2022-08-21T12:10:39;3.85;;;1.10;;
15616;SDS011;7908;51.688;7.130;2022-08-21T12:13:11;3.65;;;1.20;;
15616;SDS011;7908;51.688;7.130;2022-08-21T12:16:08;3.22;;;1.20;;
15616;SDS011;7908;51.688;7.130;2022-08-21T12:18:43;3.90;;;1.35;;
15616;SDS011;7908;51.688;7.130;2022-08-21T12:21:26;4.15;;;1.40;;
15616;SDS011;7908;51.688;7.130;2022-08-21T12:24:03;3.63;;;1.30;;
15616;SDS011;7908;51.688;7.130;2022-08-21T12:26:58;2.60;;;1.10;;
15616;SDS011;7908;51.688;7.130;2022-08-21T12:32:43;3.38;;;1.45;;
15616;SDS011;7908;51.688;7.130;2022-08-21T12:35:24;1.92;;;1.13;;
15616;SDS011;7908;51.688;7.130;2022-08-21T12:38:02;2.75;;;1.10;;
15616;SDS011;7908;51.688;7.130;2022-08-21T12:40:43;6.05;;;1.35;;
15616;SDS011;7908;51.688;7.130;2022-08-21T12:43:34;3.15;;;1.13;;
15616;SDS011;7908;51.688;7.130;2022-08-21T12:46:14;3.42;;;1.00;;
15616;SDS011;7908;51.688;7.130;2022-08-21T12:49:07;3.05;;;1.17;;
15616;SDS011;7908;51.688;7.130;2022-08-21T12:52:07;2.95;;;1.20;;
15616;SDS011;7908;51.688;7.130;2022-08-21T12:54:48;3.15;;;1.20;;
15616;SDS011;7908;51.688;7.130;2022-08-21T12:57:19;3.78;;;1.48;;
15616;SDS011;7908;51.688;7.130;2022-08-21T13:00:04;3.05;;;1.20;;
15616;SDS011;7908;51.688;7.130;2022-08-21T13:02:54;4.18;;;1.40;;
15616;SDS011;7908;51.688;7.130;2022-08-21T13:05:35;3.13;;;1.00;;
15616;SDS011;7908;51.688;7.130;2022-08-21T14:27:15;4.78;;;1.08;;
15616;SDS011;7908;51.688;7.130;2022-08-21T14:29:57;2.00;;;0.95;;
15616;SDS011;7908;51.688;7.130;2022-08-21T14:32:37;3.28;;;1.00;;
15616;SDS011;7908;51.688;7.130;2022-08-21T14:35:12;2.38;;;0.98;;
15616;SDS011;7908;51.688;7.130;2022-08-21T14:37:52;4.03;;;1.35;;
15616;SDS011;7908;51.688;7.130;2022-08-21T14:40:26;2.95;;;1.13;;
15616;SDS011;7908;51.688;7.130;2022-08-21T14:43:05;3.95;;;1.20;;
15616;SDS011;7908;51.688;7.130;2022-08-21T14:45:35;3.53;;;1.17;;
15616;SDS011;7908;51.688;7.130;2022-08-21T14:48:11;2.85;;;1.20;;
15616;SDS011;7908;51.688;7.130;2022-08-21T14:50:42;5.60;;;1.33;;
15616;SDS011;7908;51.688;7.130;2022-08-21T14:53:15;4.40;;;0.93;;
15616;SDS011;7908;51.688;7.130;2022-08-21T14:55:45;3.80;;;1.10;;
15616;SDS011;7908;51.688;7.130;2022-08-21T14:58:40;4.40;;;0.95;;
15616;SDS011;7908;51.688;7.130;2022-08-21T15:01:12;4.88;;;1.10;;
15616;SDS011;7908;51.688;7.130;2022-08-21T15:03:54;2.88;;;0.90;;
15616;SDS011;7908;51.688;7.130;2022-08-21T15:06:26;2.45;;;0.90;;
15616;SDS011;7908;51.688;7.130;2022-08-21T15:08:56;4.38;;;1.25;;
15616;SDS011;7908;51.688;7.130;2022-08-21T15:11:39;2.58;;;1.08;;
15616;SDS011;7908;51.688;7.130;2022-08-21T15:14:18;4.43;;;1.00;;
15616;SDS011;7908;51.688;7.130;2022-08-21T15:16:52;2.97;;;1.00;;
15616;SDS011;7908;51.688;7.130;2022-08-21T15:19:26;3.80;;;1.40;;
15616;SDS011;7908;51.688;7.130;2022-08-21T15:22:16;5.03;;;1.95;;
15616;SDS011;7908;51.688;7.130;2022-08-21T15:24:53;2.75;;;1.20;;
15616;SDS011;7908;51.688;7.130;2022-08-21T15:27:25;2.80;;;1.17;;
15616;SDS011;7908;51.688;7.130;2022-08-21T15:29:57;2.45;;;1.08;;
15616;SDS011;7908;51.688;7.130;2022-08-21T15:32:40;4.88;;;2.55;;
15616;SDS011;7908;51.688;7.130;2022-08-21T15:35:13;11.70;;;8.27;;
15616;SDS011;7908;51.688;7.130;2022-08-21T15:37:54;4.63;;;2.15;;
15616;SDS011;7908;51.688;7.130;2022-08-21T15:40:26;10.65;;;6.80;;
15616;SDS011;7908;51.688;7.130;2022-08-21T15:42:57;3.13;;;1.70;;
15616;SDS011;7908;51.688;7.130;2022-08-21T15:45:35;3.30;;;1.20;;
15616;SDS011;7908;51.688;7.130;2022-08-21T15:48:08;3.47;;;1.10;;
15616;SDS011;7908;51.688;7.130;2022-08-21T15:50:46;3.03;;;1.40;;
15616;SDS011;7908;51.688;7.130;2022-08-21T15:53:23;6.63;;;4.32;;
15616;SDS011;7908;51.688;7.130;2022-08-21T15:56:01;7.32;;;4.68;;
15616;SDS011;7908;51.688;7.130;2022-08-21T15:58:40;7.35;;;3.60;;
15616;SDS011;7908;51.688;7.130;2022-08-21T16:01:20;14.45;;;10.07;;
15616;SDS011;7908;51.688;7.130;2022-08-21T16:04:20;9.48;;;6.60;;
15616;SDS011;7908;51.688;7.130;2022-08-21T16:07:06;6.15;;;2.58;;
15616;SDS011;7908;51.688;7.130;2022-08-21T16:09:45;4.05;;;1.58;;
15616;SDS011;7908;51.688;7.130;2022-08-21T16:12:24;3.60;;;1.50;;
15616;SDS011;7908;51.688;7.130;2022-08-21T16:15:07;4.95;;;1.40;;
15616;SDS011;7908;51.688;7.130;2022-08-21T16:17:51;4.82;;;1.85;;
15616;SDS011;7908;51.688;7.130;2022-08-21T16:20:26;2.50;;;1.10;;
15616;SDS011;7908;51.688;7.130;2022-08-21T16:23:10;2.40;;;1.00;;
15616;SDS011;7908;51.688;7.130;2022-08-21T16:25:41;1.95;;;1.08;;
15616;SDS011;7908;51.688;7.130;2022-08-21T16:28:12;3.00;;;1.20;;
15616;SDS011;7908;51.688;7.130;2022-08-21T16:31:02;2.80;;;1.20;;
15616;SDS011;7908;51.688;7.130;2022-08-21T16:33:41;2.63;;;1.10;;
15616;SDS011;7908;51.688;7.130;2022-08-21T16:36:14;2.17;;;0.95;;
15616;SDS011;7908;51.688;7.130;2022-08-21T16:38:43;1.73;;;0.85;;
15616;SDS011;7908;51.688;7.130;2022-08-21T16:41:23;2.38;;;1.38;;
15616;SDS011;7908;51.688;7.130;2022-08-21T16:43:58;3.15;;;1.50;;
15616;SDS011;7908;51.688;7.130;2022-08-21T16:46:35;1.50;;;0.93;;
15616;SDS011;7908;51.688;7.130;2022-08-21T16:49:09;4.03;;;1.08;;
15616;SDS011;7908;51.688;7.130;2022-08-21T16:51:41;3.70;;;1.27;;
15616;SDS011;7908;51.688;7.130;2022-08-21T16:54:14;5.68;;;1.00;;
15616;SDS011;7908;51.688;7.130;2022-08-21T16:56:59;3.45;;;1.17;;
15616;SDS011;7908;51.688;7.130;2022-08-21T16:59:35;1.88;;;0.90;;
15616;SDS011;7908;51.688;7.130;2022-08-21T17:02:11;2.53;;;1.48;;
15616;SDS011;7908;51.688;7.130;2022-08-21T17:04:54;3.75;;;1.30;;
15616;SDS011;7908;51.688;7.130;2022-08-21T17:07:28;4.10;;;1.45;;
15616;SDS011;7908;51.688;7.130;2022-08-21T17:10:10;3.65;;;1.38;;
15616;SDS011;7908;51.688;7.130;2022-08-21T17:12:57;3.90;;;1.20;;
15616;SDS011;7908;51.688;7.130;2022-08-21T17:15:36;4.10;;;0.90;;
15616;SDS011;7908;51.688;7.130;2022-08-21T17:18:07;5.32;;;1.13;;
15616;SDS011;7908;51.688;7.130;2022-08-21T17:20:41;2.80;;;1.23;;
15616;SDS011;7908;51.688;7.130;2022-08-21T17:23:27;4.28;;;1.02;;
15616;SDS011;7908;51.688;7.130;2022-08-21T17:26:15;3.63;;;1.20;;
15616;SDS011;7908;51.688;7.130;2022-08-21T17:29:03;2.30;;;1.10;;